Time;durP1;ratioP1;P1;durP2;ratioP2;P2;SDS_P1;SDS_P2;PMS_P1;PMS_P2;Temp;Humidity;BMP_temperature;BMP_pressure;BME280_temperature;BME280_humidity;BME280_pressure;Samples;Min_cycle;Max_cycle;Signal;HPM_P1;HPM_P2
2022/05/20 00:00:46;;;;;;;;;;;;;;;12.34;65.70605;102278.6;;;;-79
2022/05/20 00:05:45;;;;;;;;;;;;;;;12.32;65.56836;102278;;;;-80
2022/05/20 00:07:39;;;;;;;8.7;4.5;;;;;;;;;;;;;-81
2022/05/20 00:10:45;;;;;;;;;;;;;;;12.28;65.68359;102278;;;;-80
2022/05/20 00:15:45;;;;;;;;;;;;;;;12.21;65.59668;102285.4;;;;-80
2022/05/20 00:20:45;;;;;;;;;;;;;;;12.16;65.86719;102290.8;;;;-80
2022/05/20 00:25:51;;;;;;;;;;;;;;;12.12;65.73926;102287.8;;;;-80
2022/05/20 00:30:46;;;;;;;;;;;;;;;12.1;65.78027;102284.3;;;;-81
2022/05/20 00:35:45;;;;;;;;;;;;;;;12.08;65.78809;102283.4;;;;-80
2022/05/20 00:37:40;;;;;;;7.3;4.1;;;;;;;;;;;;;-80
2022/05/20 00:40:47;;;;;;;;;;;;;;;12.08;65.66699;102272.2;;;;-80
2022/05/20 00:45:46;;;;;;;;;;;;;;;12.07;65.59668;102265.8;;;;-81
2022/05/20 00:50:47;;;;;;;;;;;;;;;12.04;65.73926;102259.7;;;;-81
2022/05/20 00:55:46;;;;;;;;;;;;;;;12.01;65.58887;102256.3;;;;-81
2022/05/20 01:00:47;;;;;;;;;;;;;;;11.97;65.56055;102247.1;;;;-82
2022/05/20 01:05:46;;;;;;;;;;;;;;;11.93;65.57617;102257.3;;;;-81
2022/05/20 01:07:41;;;;;;;7.9;4.3;;;;;;;;;;;;;-81
2022/05/20 01:10:45;;;;;;;;;;;;;;;11.87;65.47949;102258.2;;;;-81
2022/05/20 01:15:45;;;;;;;;;;;;;;;11.82;65.66211;102253;;;;-81
2022/05/20 01:21:11;;;;;;;;;;;;;;;11.79;65.52246;102237.8;;;;-81
2022/05/20 01:25:47;;;;;;;;;;;;;;;11.81;65.60352;102242.2;;;;-81
2022/05/20 01:30:49;;;;;;;;;;;;;;;11.81;65.55762;102249.4;;;;-82
2022/05/20 01:35:46;;;;;;;;;;;;;;;11.81;65.4375;102243.8;;;;-79
2022/05/20 01:37:41;;;;;;;7.5;4.5;;;;;;;;;;;;;-80
2022/05/20 01:40:48;;;;;;;;;;;;;;;11.82;65.30371;102232.2;;;;-80
2022/05/20 01:45:49;;;;;;;;;;;;;;;11.86;65.35547;102227;;;;-82
2022/05/20 01:50:47;;;;;;;;;;;;;;;11.87;65.2002;102222.4;;;;-80
2022/05/20 01:55:49;;;;;;;;;;;;;;;11.87;65.19922;102217.3;;;;-82
2022/05/20 02:01:00;;;;;;;;;;;;;;;11.85;65.27539;102221.6;;;;-81
2022/05/20 02:05:57;;;;;;;;;;;;;;;11.88;65.18945;102211.8;;;;-81
2022/05/20 02:07:45;;;;;;;8.1;4.7;;;;;;;;;;;;;-80
2022/05/20 02:10:50;;;;;;;;;;;;;;;11.87;65.04395;102201.9;;;;-80
2022/05/20 02:15:50;;;;;;;;;;;;;;;11.87;65.06641;102195.2;;;;-82
2022/05/20 02:20:47;;;;;;;;;;;;;;;11.85;64.97461;102196.6;;;;-82
2022/05/20 02:25:47;;;;;;;;;;;;;;;11.83;65.04883;102198.8;;;;-81
2022/05/20 02:30:47;;;;;;;;;;;;;;;11.82;64.92578;102198.9;;;;-82
2022/05/20 02:35:45;;;;;;;;;;;;;;;11.81;64.94727;102196.3;;;;-82
2022/05/20 02:37:43;;;;;;;9.4;4.6;;;;;;;;;;;;;-81
2022/05/20 02:40:53;;;;;;;;;;;;;;;11.83;65.00391;102207.1;;;;-79
2022/05/20 02:45:47;;;;;;;;;;;;;;;11.8;64.84375;102199.5;;;;-81
2022/05/20 02:50:47;;;;;;;;;;;;;;;11.8;64.94434;102197.9;;;;-81
2022/05/20 02:55:45;;;;;;;;;;;;;;;11.8;65.01074;102196.3;;;;-81
2022/05/20 03:05:45;;;;;;;;;;;;;;;11.77;64.96289;102185.6;;;;-80
2022/05/20 03:07:47;;;;;;;8.1;4.4;;;;;;;;;;;;;-79
2022/05/20 03:10:45;;;;;;;;;;;;;;;11.74;64.8916;102187.9;;;;-81
2022/05/20 03:15:45;;;;;;;;;;;;;;;11.71;64.94043;102193.5;;;;-80
2022/05/20 03:20:45;;;;;;;;;;;;;;;11.67;64.83594;102186.3;;;;-81
2022/05/20 03:25:45;;;;;;;;;;;;;;;11.6;64.95898;102187.8;;;;-81
2022/05/20 03:30:47;;;;;;;;;;;;;;;11.54;65.00586;102198.3;;;;-80
2022/05/20 03:35:48;;;;;;;;;;;;;;;11.49;65.09863;102198.2;;;;-80
2022/05/20 03:37:47;;;;;;;7.6;4.5;;;;;;;;;;;;;-81
2022/05/20 03:40:45;;;;;;;;;;;;;;;11.45;65.07129;102202.4;;;;-80
2022/05/20 03:45:47;;;;;;;;;;;;;;;11.42;65.22168;102209.4;;;;-80
2022/05/20 03:50:45;;;;;;;;;;;;;;;11.39;65.07324;102211;;;;-82
2022/05/20 03:55:45;;;;;;;;;;;;;;;11.36;65.18945;102199.4;;;;-79
2022/05/20 04:05:45;;;;;;;;;;;;;;;11.32;65.13965;102188.9;;;;-80
2022/05/20 04:07:50;;;;;;;8;4.7;;;;;;;;;;;;;-80
2022/05/20 04:10:45;;;;;;;;;;;;;;;11.35;65.12305;102181.4;;;;-83
2022/05/20 04:15:46;;;;;;;;;;;;;;;11.35;64.91113;102172.8;;;;-81
2022/05/20 04:20:45;;;;;;;;;;;;;;;11.38;64.99316;102182.8;;;;-80
2022/05/20 04:25:45;;;;;;;;;;;;;;;11.4;64.85156;102183.8;;;;-81
2022/05/20 04:30:48;;;;;;;;;;;;;;;11.42;64.7998;102177.4;;;;-81
2022/05/20 04:35:45;;;;;;;;;;;;;;;11.5;64.66602;102175.9;;;;-81
2022/05/20 04:37:48;;;;;;;10.2;4.8;;;;;;;;;;;;;-81
2022/05/20 04:40:45;;;;;;;;;;;;;;;11.6;64.44629;102173.4;;;;-81
2022/05/20 04:50:50;;;;;;;;;;;;;;;11.84;64.66113;102163.5;;;;-80
2022/05/20 04:55:48;;;;;;;;;;;;;;;11.98;64.15723;102157.7;;;;-82
2022/05/20 05:00:47;;;;;;;;;;;;;;;12.1;63.79492;102157.7;;;;-82
2022/05/20 05:05:45;;;;;;;;;;;;;;;12.19;63.59668;102145.3;;;;-80
2022/05/20 05:07:50;;;;;;;8;4.7;;;;;;;;;;;;;-80
2022/05/20 05:10:48;;;;;;;;;;;;;;;12.25;63.43848;102143.5;;;;-80
2022/05/20 05:15:46;;;;;;;;;;;;;;;12.33;63.35938;102148.5;;;;-79
2022/05/20 05:20:54;;;;;;;;;;;;;;;12.43;63.2959;102157.9;;;;-82
2022/05/20 05:25:48;;;;;;;;;;;;;;;12.56;64.46484;102155.4;;;;-80
2022/05/20 05:30:53;;;;;;;;;;;;;;;12.82;65.57617;102167.9;;;;-82
2022/05/20 05:35:48;;;;;;;;;;;;;;;13.07;64.39551;102184.2;;;;-79
2022/05/20 05:37:51;;;;;;;11.2;4.7;;;;;;;;;;;;;-82
2022/05/20 05:40:46;;;;;;;;;;;;;;;13.49;63.54883;102179.3;;;;-81
2022/05/20 05:45:49;;;;;;;;;;;;;;;13.86;62.30371;102178.1;;;;-83
2022/05/20 05:50:55;;;;;;;;;;;;;;;14.24;61.71777;102180;;;;-79
2022/05/20 05:55:45;;;;;;;;;;;;;;;14.58;61.0918;102169.3;;;;-80
2022/05/20 06:01:04;;;;;;;;;;;;;;;14.8;60.49316;102169.7;;;;-81
2022/05/20 06:05:45;;;;;;;;;;;;;;;14.91;60.38477;102155.5;;;;-80
2022/05/20 06:07:52;;;;;;;7;4.1;;;;;;;;;;;;;-80
2022/05/20 06:10:45;;;;;;;;;;;;;;;15.13;60.20215;102167.5;;;;-81
2022/05/20 06:15:45;;;;;;;;;;;;;;;15.38;59.98633;102169.8;;;;-81
2022/05/20 06:20:48;;;;;;;;;;;;;;;15.47;59.86426;102164.5;;;;-80
2022/05/20 06:25:51;;;;;;;;;;;;;;;15.52;60.15234;102154.7;;;;-81
2022/05/20 06:30:48;;;;;;;;;;;;;;;15.7;60.72949;102146.4;;;;-81
2022/05/20 06:40:45;;;;;;;;;;;;;;;16.55;60.38184;102135.6;;;;-82
2022/05/20 06:45:46;;;;;;;;;;;;;;;16.62;60.26855;102136.1;;;;-79
2022/05/20 06:50:48;;;;;;;;;;;;;;;16.9;60.39648;102147.1;;;;-81
2022/05/20 06:55:47;;;;;;;;;;;;;;;17.33;59.6875;102150.7;;;;-83
2022/05/20 07:00:50;;;;;;;;;;;;;;;17.54;59.44238;102142.4;;;;-81
2022/05/20 07:05:46;;;;;;;;;;;;;;;17.77;59.67871;102144.8;;;;-82
2022/05/20 07:08:10;;;;;;;6.7;4.2;;;;;;;;;;;;;-79
2022/05/20 07:11:02;;;;;;;;;;;;;;;18.06;59.72754;102149.7;;;;-81
2022/05/20 07:15:44;;;;;;;;;;;;;;;18.39;59.15918;102141.2;;;;-81
2022/05/20 07:20:50;;;;;;;;;;;;;;;18.61;59.05371;102132.2;;;;-82
2022/05/20 07:25:53;;;;;;;;;;;;;;;18.82;58.61621;102124.5;;;;-81
2022/05/20 07:30:46;;;;;;;;;;;;;;;18.84;58.46094;102122.5;;;;-78
2022/05/20 07:35:48;;;;;;;;;;;;;;;19.06;58.39746;102108.8;;;;-81
2022/05/20 07:38:01;;;;;;;10;6.4;;;;;;;;;;;;;-83
2022/05/20 07:40:45;;;;;;;;;;;;;;;19.38;57.74805;102107.5;;;;-80
2022/05/20 07:45:48;;;;;;;;;;;;;;;19.72;56.84668;102106.7;;;;-81
2022/05/20 07:51:00;;;;;;;;;;;;;;;19.99;55.83398;102106.5;;;;-83
2022/05/20 07:55:52;;;;;;;;;;;;;;;20.27;55.49219;102103.1;;;;-81
2022/05/20 08:00:39;;;;;;;;;;;;;;;20.46;54.62793;102090.8;;;;-80
2022/05/20 08:05:35;;;;;;;;;;;;;;;20.59;54.10742;102079.9;;;;-80
2022/05/20 08:08:08;;;;;;;10.5;5.9;;;;;;;;;;;;;-82
2022/05/20 08:10:34;;;;;;;;;;;;;;;20.72;53.84863;102065.2;;;;-80
2022/05/20 08:16:07;;;;;;;;;;;;;;;20.89;53.52734;102055.8;;;;-83
2022/05/20 08:21:07;;;;;;;;;;;;;;;21.08;53.13867;102051.4;;;;-80
2022/05/20 08:26:05;;;;;;;;;;;;;;;21.27;52.98926;102031.1;;;;-81
2022/05/20 08:30:52;;;;;;;;;;;;;;;21.51;52.60547;102044.9;;;;-82
2022/05/20 08:35:54;;;;;;;;;;;;;;;21.73;51.6709;102035.6;;;;-81
2022/05/20 08:38:06;;;;;;;9.1;5.9;;;;;;;;;;;;;-82
2022/05/20 08:40:51;;;;;;;;;;;;;;;21.83;51.0293;102016.9;;;;-81
2022/05/20 08:57:12;;;;;;;;;;;;;;;22.16;50.50586;101995.7;;;;-82
2022/05/20 09:00:25;;;;;;;;;;;;;;;22.19;50.25781;101981.4;;;;-82
2022/05/20 09:05:23;;;;;;;;;;;;;;;22.22;50.29492;101961.5;;;;-82
2022/05/20 09:08:08;;;;;;;9.7;5.6;;;;;;;;;;;;;-80
2022/05/20 09:10:31;;;;;;;;;;;;;;;22.3;50.0166;101952.9;;;;-81
2022/05/20 09:35:58;;;;;;;;;;;;;;;22.86;49.44824;101902;;;;-81
2022/05/20 09:38:14;;;;;;;9.6;5.5;;;;;;;;;;;;;-80
2022/05/20 09:40:55;;;;;;;;;;;;;;;23.03;49.17969;101901.9;;;;-82
2022/05/20 09:45:56;;;;;;;;;;;;;;;23.14;49.06543;101903.2;;;;-81
2022/05/20 09:51:36;;;;;;;;;;;;;;;23.27;48.57324;101910.3;;;;-81
2022/05/20 09:56:41;;;;;;;;;;;;;;;23.32;48.33691;101897.3;;;;-81
2022/05/20 10:01:17;;;;;;;;;;;;;;;23.37;48.48047;101880;;;;-82
2022/05/20 10:05:41;;;;;;;;;;;;;;;23.43;48.55664;101868.2;;;;-80
2022/05/20 10:08:24;;;;;;;8.1;5.4;;;;;;;;;;;;;-82
2022/05/20 10:10:29;;;;;;;;;;;;;;;23.49;48.45898;101842.3;;;;-79
2022/05/20 10:15:30;;;;;;;;;;;;;;;23.53;48.625;101843.6;;;;-80
2022/05/20 10:22:16;;;;;;;;;;;;;;;23.6;48.65527;101822.3;;;;-81
2022/05/20 10:27:26;;;;;;;;;;;;;;;23.69;48.66602;101804.1;;;;-83
2022/05/20 10:36:19;;;;;;;;;;;;;;;23.91;48.14844;101763;;;;-82
2022/05/20 10:38:51;;;;;;;;;;;;;;;;;;;;;
2022/05/20 10:49:49;;;;;;;;;;;;;;;24.37;48.20898;101730.1;;;;-81
2022/05/20 10:54:50;;;;;;;;;;;;;;;24.54;48.1582;101714.8;;;;-81
2022/05/20 10:59:57;;;;;;;;;;;;;;;24.7;47.80566;101708.3;;;;-80
2022/05/20 11:05:13;;;;;;;;;;;;;;;24.75;47.39551;101708.6;;;;-82
2022/05/20 11:08:27;;;;;;;11;7;;;;;;;;;;;;;-81
2022/05/20 11:10:11;;;;;;;;;;;;;;;24.69;47.875;101684.4;;;;-83
2022/05/20 11:15:10;;;;;;;;;;;;;;;24.66;48.19336;101646;;;;-82
2022/05/20 11:20:43;;;;;;;;;;;;;;;24.68;48.3457;101599.7;;;;-81
2022/05/20 11:25:44;;;;;;;;;;;;;;;24.78;47.96387;101612.2;;;;-82
2022/05/20 11:30:41;;;;;;;;;;;;;;;24.78;48.19434;101603.9;;;;-80
2022/05/20 11:35:37;;;;;;;;;;;;;;;24.65;47.98438;101584;;;;-82
2022/05/20 11:38:32;;;;;;;9.4;6.1;;;;;;;;;;;;;-80
2022/05/20 11:40:38;;;;;;;;;;;;;;;24.37;47.9668;101586.1;;;;-84
2022/05/20 11:45:31;;;;;;;;;;;;;;;24.1;48.29492;101578.8;;;;-80
2022/05/20 11:50:38;;;;;;;;;;;;;;;23.85;48.45215;101580;;;;-81
2022/05/20 11:55:16;;;;;;;;;;;;;;;23.6;48.86328;101576.3;;;;-81
2022/05/20 12:00:16;;;;;;;;;;;;;;;23.37;49.32031;101573.3;;;;-81
2022/05/20 12:06:02;;;;;;;;;;;;;;;23.12;49.83203;101536.2;;;;-81
2022/05/20 12:08:49;;;;;;;9.2;6;;;;;;;;;;;;;-81
2022/05/20 12:11:18;;;;;;;;;;;;;;;22.92;50.08594;101522;;;;-79
2022/05/20 12:16:11;;;;;;;;;;;;;;;22.73;50.4668;101518.1;;;;-80
2022/05/20 12:31:45;;;;;;;;;;;;;;;22.01;51.93262;101542.3;;;;-80
2022/05/20 12:35:09;;;;;;;;;;;;;;;21.87;52.11035;101555.6;;;;-83
2022/05/20 12:38:34;;;;;;;13.1;6.9;;;;;;;;;;;;;-81
2022/05/20 12:40:04;;;;;;;;;;;;;;;21.63;52.94043;101522.9;;;;-81
2022/05/20 12:45:06;;;;;;;;;;;;;;;21.4;52.89063;101549.5;;;;-80
2022/05/20 12:51:44;;;;;;;;;;;;;;;21.11;53.21094;101551.9;;;;-81
2022/05/20 12:56:35;;;;;;;;;;;;;;;20.86;53.30566;101562.3;;;;-80
2022/05/20 13:01:34;;;;;;;;;;;;;;;20.64;53.44043;101569.3;;;;-80
2022/05/20 13:06:23;;;;;;;;;;;;;;;20.46;53.43066;101562.4;;;;-79
2022/05/20 13:08:40;;;;;;;11.8;7.3;;;;;;;;;;;;;-81
2022/05/20 13:11:18;;;;;;;;;;;;;;;20.28;53.62402;101525.4;;;;-81
2022/05/20 13:16:20;;;;;;;;;;;;;;;20.12;53.7207;101519.6;;;;-79
2022/05/20 13:21:32;;;;;;;;;;;;;;;19.97;53.92871;101500.4;;;;-80
2022/05/20 13:26:32;;;;;;;;;;;;;;;19.82;54.07031;101492.9;;;;-78
2022/05/20 13:31:39;;;;;;;;;;;;;;;19.68;54.54395;101520.2;;;;-80
2022/05/20 13:37:49;;;;;;;;;;;;;;;19.5;54.72559;101503.7;;;;-78
2022/05/20 13:38:44;;;;;;;12.8;8.2;;;;;;;;;;;;;-78
2022/05/20 13:42:50;;;;;;;;;;;;;;;19.38;55.2334;101474.5;;;;-79
2022/05/20 13:51:26;;;;;;;;;;;;;;;19.18;55.7207;101509.8;;;;-79
2022/05/20 13:56:33;;;;;;;;;;;;;;;19.02;56.24609;101545.4;;;;-78
2022/05/20 14:01:19;;;;;;;;;;;;;;;18.82;56.88086;101576.6;;;;-78
2022/05/20 14:07:10;;;;;;;;;;;;;;;18.58;57.37109;101563.6;;;;-78
2022/05/20 14:08:57;;;;;;;15.3;9;;;;;;;;;;;;;-77
2022/05/20 14:12:14;;;;;;;;;;;;;;;18.35;57.85254;101514.8;;;;-78
2022/05/20 14:17:08;;;;;;;;;;;;;;;18.14;58.46973;101526.5;;;;-78
2022/05/20 14:22:02;;;;;;;;;;;;;;;17.93;58.63477;101525;;;;-79
2022/05/20 14:27:12;;;;;;;;;;;;;;;17.68;59.32617;101513.9;;;;-79
2022/05/20 14:31:59;;;;;;;;;;;;;;;17.46;59.91992;101526.4;;;;-79
2022/05/20 14:38:28;;;;;;;;;;;;;;;17.23;60.12598;101520.6;;;;-80
2022/05/20 14:38:49;;;;;;;9.1;5.1;;;;;;;;;;;;;-79
2022/05/20 14:43:26;;;;;;;;;;;;;;;17.06;60.53223;101507.1;;;;-80
2022/05/20 14:48:27;;;;;;;;;;;;;;;16.9;61.00781;101501.1;;;;-80
2022/05/20 14:52:38;;;;;;;;;;;;;;;16.8;61.16211;101527.3;;;;-81
2022/05/20 14:57:35;;;;;;;;;;;;;;;16.64;61.5791;101535.4;;;;-80
2022/05/20 15:02:25;;;;;;;;;;;;;;;16.51;61.77734;101531.7;;;;-81
2022/05/20 15:07:09;;;;;;;;;;;;;;;16.38;61.84863;101533.2;;;;-88
2022/05/20 15:08:48;;;;;;;4.8;2.2;;;;;;;;;;;;;-89
2022/05/20 15:12:12;;;;;;;;;;;;;;;16.23;62.44727;101542.1;;;;-86
2022/05/20 15:17:18;;;;;;;;;;;;;;;16.13;62.41113;101498.4;;;;-88
2022/05/20 15:22:24;;;;;;;;;;;;;;;16.06;62.6709;101516.3;;;;-80
2022/05/20 15:27:26;;;;;;;;;;;;;;;16.03;62.76855;101545;;;;-80
2022/05/20 15:39:11;;;;;;;2.6;1.5;;;;;;;;;;;;;-80
2022/05/20 15:39:29;;;;;;;;;;;;;;;15.97;63.03027;101470.2;;;;-79
2022/05/20 15:44:11;;;;;;;;;;;;;;;16.02;63.09277;101450;;;;-79
2022/05/20 15:49:11;;;;;;;;;;;;;;;16.1;63.10547;101451.3;;;;-81
2022/05/20 15:53:38;;;;;;;;;;;;;;;16.2;62.92871;101448.4;;;;-81
2022/05/20 15:58:38;;;;;;;;;;;;;;;16.36;62.83789;101470.6;;;;-81
2022/05/20 16:03:38;;;;;;;;;;;;;;;16.52;62.78223;101466.4;;;;-81
2022/05/20 16:08:25;;;;;;;;;;;;;;;16.62;62.63867;101494.5;;;;-80
2022/05/20 16:08:56;;;;;;;3.5;1.9;;;;;;;;;;;;;-80
2022/05/20 16:13:26;;;;;;;;;;;;;;;16.64;62.95508;101516.3;;;;-80
2022/05/20 16:18:26;;;;;;;;;;;;;;;16.57;63.39746;101557.5;;;;-81
2022/05/20 16:22:33;;;;;;;;;;;;;;;16.42;63.64551;101566.8;;;;-80
2022/05/20 16:27:31;;;;;;;;;;;;;;;16.22;64.36133;101573;;;;-82
2022/05/20 16:32:31;;;;;;;;;;;;;;;16.1;64.18652;101576.7;;;;-80
2022/05/20 16:38:57;;;;;;;9.8;3.9;;;;;;;;;;;;;-79
2022/05/20 16:39:45;;;;;;;;;;;;;;;15.93;64.27441;101591.5;;;;-80
2022/05/20 16:44:39;;;;;;;;;;;;;;;15.81;64.48242;101596.3;;;;-81
2022/05/20 16:49:40;;;;;;;;;;;;;;;15.73;64.51563;101593.4;;;;-82
2022/05/20 17:01:45;;;;;;;;;;;;;;;15.61;64.53027;101588.5;;;;-81
2022/05/20 17:05:56;;;;;;;;;;;;;;;15.38;64.81348;101617.3;;;;-78
2022/05/20 17:09:17;;;;;;;10.1;3;;;;;;;;;;;;;-79
2022/05/20 17:11:46;;;;;;;;;;;;;;;15.19;64.95313;101634;;;;-80
2022/05/20 17:16:51;;;;;;;;;;;;;;;15.02;65.19727;101643.7;;;;-80
2022/05/20 17:27:59;;;;;;;;;;;;;;;14.81;65.80664;101671;;;;-81
2022/05/20 17:33:01;;;;;;;;;;;;;;;14.64;65.83691;101672.7;;;;-81
2022/05/20 17:37:58;;;;;;;;;;;;;;;14.5;65.94922;101666.8;;;;-81
2022/05/20 17:39:02;;;;;;;4.6;1.1;;;;;;;;;;;;;-81
2022/05/20 17:41:21;;;;;;;;;;;;;;;14.44;66.13184;101669.7;;;;-81
2022/05/20 17:46:19;;;;;;;;;;;;;;;14.37;65.9209;101672.2;;;;-79
2022/05/20 17:51:21;;;;;;;;;;;;;;;14.32;66.04688;101679.3;;;;-79
2022/05/20 17:58:16;;;;;;;;;;;;;;;14.22;66.09863;101684.5;;;;-80
2022/05/20 18:03:20;;;;;;;;;;;;;;;14.18;66.10352;101700.5;;;;-79
2022/05/20 18:08:12;;;;;;;;;;;;;;;14.15;66.41309;101715.1;;;;-78
2022/05/20 18:09:01;;;;;;;4.1;0.9;;;;;;;;;;;;;-76
2022/05/20 18:13:19;;;;;;;;;;;;;;;14.11;66.19434;101725.1;;;;-79
2022/05/20 18:18:27;;;;;;;;;;;;;;;14.05;66.70215;101732.8;;;;-81
2022/05/20 18:23:23;;;;;;;;;;;;;;;14;66.9043;101739.8;;;;-80
2022/05/20 18:44:29;;;;;;;;;;;;;;;13.75;67.94141;101763.6;;;;-81
2022/05/20 18:49:32;;;;;;;;;;;;;;;13.73;67.83789;101764.5;;;;-80
2022/05/20 18:54:29;;;;;;;;;;;;;;;13.72;67.9707;101759.3;;;;-77
2022/05/20 18:59:04;;;;;;;;;;;;;;;13.71;67.9707;101766.2;;;;-80
2022/05/20 19:09:15;;;;;;;;;;;;;;;13.65;67.88184;101766.4;;;;-81
2022/05/20 19:09:40;;;;;;;3.4;1.3;;;;;;;;;;;;;-81
2022/05/20 19:13:04;;;;;;;;;;;;;;;13.63;68.13574;101778.6;;;;-80
2022/05/20 19:18:02;;;;;;;;;;;;;;;13.6;67.73828;101774.2;;;;-81
2022/05/20 19:23:06;;;;;;;;;;;;;;;13.57;67.91504;101781.6;;;;-81
2022/05/20 19:28:20;;;;;;;;;;;;;;;13.52;67.96191;101786.1;;;;-81
2022/05/20 19:33:20;;;;;;;;;;;;;;;13.51;67.98145;101795.6;;;;-80
2022/05/20 19:38:19;;;;;;;;;;;;;;;13.46;68.02051;101792.8;;;;-80
2022/05/20 19:39:05;;;;;;;5;1.2;;;;;;;;;;;;;-82
2022/05/20 19:44:19;;;;;;;;;;;;;;;13.42;67.85742;101795.4;;;;-80
2022/05/20 19:49:18;;;;;;;;;;;;;;;13.38;67.93945;101793.6;;;;-81
2022/05/20 19:54:22;;;;;;;;;;;;;;;13.33;67.99805;101801.7;;;;-81
2022/05/20 20:04:18;;;;;;;;;;;;;;;13.21;68.14941;101827.2;;;;-80
2022/05/20 20:09:07;;;;;;;3.9;1.7;;;;;;;;;;;;;-80
2022/05/20 20:09:20;;;;;;;;;;;;;;;13.11;68.11133;101841.8;;;;-80
2022/05/20 20:15:56;;;;;;;;;;;;;;;13.01;68.09668;101846.5;;;;-81
2022/05/20 20:20:48;;;;;;;;;;;;;;;12.93;68.25098;101845.4;;;;-80
2022/05/20 20:29:31;;;;;;;;;;;;;;;12.79;68.05078;101860.5;;;;-81
2022/05/20 20:34:32;;;;;;;;;;;;;;;12.71;68.12891;101865.3;;;;-81
2022/05/20 20:39:10;;;;;;;5.2;2.1;;;;;;;;;;;;;-79
2022/05/20 20:39:31;;;;;;;;;;;;;;;12.64;68.53027;101873.4;;;;-80
2022/05/20 20:46:24;;;;;;;;;;;;;;;12.56;69.1084;101868.7;;;;-81
2022/05/20 20:56:16;;;;;;;;;;;;;;;12.45;70.47363;101887.6;;;;-80
2022/05/20 20:59:56;;;;;;;;;;;;;;;12.43;71.11523;101891.3;;;;-81
2022/05/20 21:04:55;;;;;;;;;;;;;;;12.38;71.66504;101880.4;;;;-80
2022/05/20 21:09:11;;;;;;;8.2;2.4;;;;;;;;;;;;;-80
2022/05/20 21:09:56;;;;;;;;;;;;;;;12.37;71.77539;101878.5;;;;-80
2022/05/20 21:15:32;;;;;;;;;;;;;;;12.36;71.78516;101895.1;;;;-80
2022/05/20 21:20:32;;;;;;;;;;;;;;;12.37;71.95313;101899.2;;;;-81
2022/05/20 21:25:32;;;;;;;;;;;;;;;12.35;72.03809;101892.8;;;;-81
2022/05/20 21:31:50;;;;;;;;;;;;;;;12.34;72.38379;101886.5;;;;-81
2022/05/20 21:36:49;;;;;;;;;;;;;;;12.33;72.96094;101890.5;;;;-80
2022/05/20 21:39:24;;;;;;;10.5;4;;;;;;;;;;;;;-79
2022/05/20 21:41:49;;;;;;;;;;;;;;;12.34;73.34082;101891.4;;;;-81
2022/05/20 21:45:09;;;;;;;;;;;;;;;12.36;73.44434;101889.3;;;;-81
2022/05/20 21:50:08;;;;;;;;;;;;;;;12.35;73.19629;101895.1;;;;-82
2022/05/20 21:55:10;;;;;;;;;;;;;;;12.33;73.61816;101892.8;;;;-80
2022/05/20 22:00:23;;;;;;;;;;;;;;;12.34;73.14063;101893.6;;;;-80
2022/05/20 22:09:19;;;;;;;10.8;3.9;;;;;;;;;;;;;-80
2022/05/20 22:10:16;;;;;;;;;;;;;;;12.25;73.60449;101894.1;;;;-80
2022/05/20 22:22:06;;;;;;;;;;;;;;;12.16;73.56641;101887.1;;;;-80
2022/05/20 22:27:13;;;;;;;;;;;;;;;12.14;73.58398;101891.6;;;;-77
2022/05/20 22:30:57;;;;;;;;;;;;;;;12.11;73.39063;101885.5;;;;-80
2022/05/20 22:35:55;;;;;;;;;;;;;;;12.1;73.56738;101883.7;;;;-79
2022/05/20 22:39:20;;;;;;;13.4;3.4;;;;;;;;;;;;;-80
2022/05/20 22:40:48;;;;;;;;;;;;;;;12.08;73.70898;101879.2;;;;-81
2022/05/20 22:48:09;;;;;;;;;;;;;;;12.09;74.34375;101871.8;;;;-80
2022/05/20 22:53:21;;;;;;;;;;;;;;;12.16;75.07813;101868.7;;;;-79
2022/05/20 22:58:05;;;;;;;;;;;;;;;12.2;74.83008;101871.5;;;;-79
2022/05/20 23:02:45;;;;;;;;;;;;;;;12.24;75.00488;101871.3;;;;-81
2022/05/20 23:07:41;;;;;;;;;;;;;;;12.28;74.9668;101873.7;;;;-80
2022/05/20 23:09:21;;;;;;;10.1;3;;;;;;;;;;;;;-80
2022/05/20 23:12:41;;;;;;;;;;;;;;;12.33;75.48633;101869.5;;;;-81
2022/05/20 23:16:42;;;;;;;;;;;;;;;12.36;75.49219;101874.1;;;;-81
2022/05/20 23:21:42;;;;;;;;;;;;;;;12.38;76.11816;101877.1;;;;-81
2022/05/20 23:26:42;;;;;;;;;;;;;;;12.41;76.63477;101872.4;;;;-81
2022/05/20 23:34:01;;;;;;;;;;;;;;;12.47;76.50098;101879.9;;;;-80
2022/05/20 23:39:01;;;;;;;;;;;;;;;12.52;76.76465;101872.6;;;;-79
2022/05/20 23:39:44;;;;;;;10.7;2.3;;;;;;;;;;;;;-79
2022/05/20 23:47:49;;;;;;;;;;;;;;;12.56;76.97363;101849.7;;;;-80
2022/05/20 23:52:50;;;;;;;;;;;;;;;12.58;77.20996;101851.8;;;;-81
2022/05/20 23:57:49;;;;;;;;;;;;;;;12.6;77.21289;101845.3;;;;-80
